Time;durP1;ratioP1;P1;durP2;ratioP2;P2;SDS_P1;SDS_P2;PMS_P1;PMS_P2;Temp;Humidity;BMP_temperature;BMP_pressure;BME280_temperature;BME280_humidity;BME280_pressure;Samples;Min_cycle;Max_cycle;Signal;HPM_P1;HPM_P2
2023/10/01 00:01:41;;;;;;;12.85;5.28;;;;;;;;;;5038188;28;20552;-75
2023/10/01 00:04:07;;;;;;;13.65;5.50;;;;;;;;;;5062066;28;20041;-75
2023/10/01 00:06:34;;;;;;;14.73;5.30;;;;;;;;;;5045299;28;20487;-75
2023/10/01 00:09:02;;;;;;;17.27;5.53;;;;;;;;;;5052304;28;20495;-75
2023/10/01 00:11:29;;;;;;;16.55;5.75;;;;;;;;;;5052372;28;20045;-75
2023/10/01 00:13:55;;;;;;;9.63;5.32;;;;;;;;;;5053842;28;20048;-75
2023/10/01 00:16:21;;;;;;;15.15;5.78;;;;;;;;;;5051708;28;20133;-75
2023/10/01 00:18:47;;;;;;;11.75;5.32;;;;;;;;;;5042076;28;20095;-75
2023/10/01 00:21:13;;;;;;;14.20;6.10;;;;;;;;;;5064204;28;20420;-75
2023/10/01 00:23:40;;;;;;;15.52;6.20;;;;;;;;;;5052893;28;20089;-75
2023/10/01 00:26:06;;;;;;;13.18;6.03;;;;;;;;;;5052328;28;20041;-75
2023/10/01 00:28:33;;;;;;;10.73;5.75;;;;;;;;;;5048369;28;20118;-75
2023/10/01 00:30:59;;;;;;;15.70;6.72;;;;;;;;;;5050109;28;20040;-75
2023/10/01 00:33:25;;;;;;;11.55;6.28;;;;;;;;;;5067005;28;20507;-75
2023/10/01 00:35:51;;;;;;;18.00;6.47;;;;;;;;;;5043055;28;20041;-75
2023/10/01 00:38:17;;;;;;;16.35;6.65;;;;;;;;;;5048756;28;20123;-75
2023/10/01 00:40:44;;;;;;;12.75;6.40;;;;;;;;;;5051462;28;20082;-75
2023/10/01 00:43:11;;;;;;;14.68;6.95;;;;;;;;;;5053615;28;20048;-75
2023/10/01 00:45:37;;;;;;;18.13;7.65;;;;;;;;;;5046852;28;20110;-75
2023/10/01 00:48:14;;;;;;;14.50;6.50;;;;;;;;;;5046055;28;20123;-75
2023/10/01 00:50:41;;;;;;;13.30;6.75;;;;;;;;;;5046912;28;20079;-75
2023/10/01 00:53:09;;;;;;;12.57;6.65;;;;;;;;;;5050699;28;20063;-75
2023/10/01 00:55:36;;;;;;;15.07;7.20;;;;;;;;;;5051638;28;20049;-75
2023/10/01 00:58:03;;;;;;;16.13;7.03;;;;;;;;;;5058860;28;20391;-75
2023/10/01 01:00:29;;;;;;;14.63;6.85;;;;;;;;;;5042860;28;20069;-75
2023/10/01 01:05:34;;;;;;;17.73;7.57;;;;;;;;;;5061721;28;20051;-75
2023/10/01 01:08:03;;;;;;;15.18;7.03;;;;;;;;;;5068657;28;20408;-75
2023/10/01 01:10:31;;;;;;;15.95;7.03;;;;;;;;;;5054935;28;20049;-75
2023/10/01 01:12:58;;;;;;;13.95;6.93;;;;;;;;;;5061927;28;20396;-76
2023/10/01 01:15:26;;;;;;;18.08;6.63;;;;;;;;;;5051604;28;20060;-75
2023/10/01 01:17:53;;;;;;;20.02;6.65;;;;;;;;;;5069425;28;20436;-75
2023/10/01 01:20:19;;;;;;;15.75;6.68;;;;;;;;;;5039718;28;20059;-75
2023/10/01 01:22:49;;;;;;;15.27;6.80;;;;;;;;;;5047636;28;20100;-75
2023/10/01 01:25:20;;;;;;;14.15;6.25;;;;;;;;;;5065341;28;20131;-75
2023/10/01 01:27:46;;;;;;;15.10;6.40;;;;;;;;;;5062041;28;20101;-76
2023/10/01 01:30:19;;;;;;;12.80;6.28;;;;;;;;;;5070789;28;20032;-76
2023/10/01 01:32:47;;;;;;;16.35;6.82;;;;;;;;;;5071594;28;20049;-76
2023/10/01 01:35:13;;;;;;;16.60;6.32;;;;;;;;;;5040826;28;20048;-75
2023/10/01 01:37:54;;;;;;;12.68;6.32;;;;;;;;;;5044950;28;20484;-75
2023/10/01 01:40:31;;;;;;;12.55;5.85;;;;;;;;;;5052429;28;20378;-75
2023/10/01 01:43:01;;;;;;;14.80;6.20;;;;;;;;;;5061893;28;20484;-75
2023/10/01 01:45:32;;;;;;;15.73;6.82;;;;;;;;;;5054103;28;20051;-75
2023/10/01 01:48:00;;;;;;;14.90;6.65;;;;;;;;;;5043031;28;20102;-75
2023/10/01 01:50:27;;;;;;;15.82;6.50;;;;;;;;;;5052121;28;20569;-76
2023/10/01 01:52:56;;;;;;;20.05;7.80;;;;;;;;;;5064776;28;20117;-75
2023/10/01 01:55:29;;;;;;;12.93;6.70;;;;;;;;;;5054643;28;20044;-75
2023/10/01 01:58:06;;;;;;;14.10;6.63;;;;;;;;;;5069085;28;20492;-76
2023/10/01 02:00:34;;;;;;;15.35;6.72;;;;;;;;;;5046236;28;20041;-75
2023/10/01 02:03:05;;;;;;;16.42;7.38;;;;;;;;;;5064885;28;20139;-75
2023/10/01 02:05:31;;;;;;;15.25;6.93;;;;;;;;;;5050725;28;20065;-75
2023/10/01 02:08:06;;;;;;;16.10;7.68;;;;;;;;;;5049011;28;20048;-75
2023/10/01 02:10:44;;;;;;;14.20;7.57;;;;;;;;;;5049696;28;20513;-75
2023/10/01 02:13:11;;;;;;;13.05;7.72;;;;;;;;;;5051176;28;20040;-75
2023/10/01 02:15:38;;;;;;;13.55;7.28;;;;;;;;;;5046178;28;20044;-76
2023/10/01 02:18:04;;;;;;;15.23;6.53;;;;;;;;;;5053171;28;20045;-76
2023/10/01 02:20:33;;;;;;;14.80;6.70;;;;;;;;;;5045702;28;20036;-75
2023/10/01 02:23:02;;;;;;;13.70;6.15;;;;;;;;;;5064649;28;20045;-75
2023/10/01 02:25:37;;;;;;;13.25;5.70;;;;;;;;;;5049215;28;20048;-76
2023/10/01 02:28:13;;;;;;;16.05;6.13;;;;;;;;;;5042130;28;20057;-75
2023/10/01 02:30:44;;;;;;;17.05;6.95;;;;;;;;;;5064398;28;20045;-76
2023/10/01 02:33:18;;;;;;;15.38;6.60;;;;;;;;;;5040433;28;20049;-75
2023/10/01 02:35:46;;;;;;;13.90;6.25;;;;;;;;;;5042799;28;20103;-75
2023/10/01 02:40:58;;;;;;;16.20;6.43;;;;;;;;;;5064750;28;20491;-75
2023/10/01 02:43:34;;;;;;;15.55;6.43;;;;;;;;;;5070391;28;20076;-75
2023/10/01 02:46:07;;;;;;;16.92;6.90;;;;;;;;;;5067407;28;20110;-75
2023/10/01 02:48:34;;;;;;;17.33;6.47;;;;;;;;;;5057165;28;20446;-75
2023/10/01 02:51:32;;;;;;;15.82;7.13;;;;;;;;;;5047800;28;20045;-76
2023/10/01 02:54:06;;;;;;;13.82;7.07;;;;;;;;;;5038872;28;20114;-75
2023/10/01 02:56:33;;;;;;;19.63;6.70;;;;;;;;;;5066679;28;20053;-75
2023/10/01 02:59:13;;;;;;;17.23;7.25;;;;;;;;;;5037083;28;20036;-76
2023/10/01 03:01:39;;;;;;;16.45;6.63;;;;;;;;;;5049045;28;20543;-76
2023/10/01 03:04:16;;;;;;;15.00;6.72;;;;;;;;;;5050865;28;20360;-75
2023/10/01 03:06:55;;;;;;;14.85;6.20;;;;;;;;;;5050567;28;20044;-76
2023/10/01 03:09:22;;;;;;;14.98;6.60;;;;;;;;;;5071839;28;20126;-75
2023/10/01 03:12:23;;;;;;;17.85;7.00;;;;;;;;;;5047887;28;20053;-76
2023/10/01 03:14:43;;;;;;;12.65;6.32;;;;;;;;;;5068467;28;20047;-75
2023/10/01 03:17:09;;;;;;;14.02;5.95;;;;;;;;;;5067485;28;20047;-75
2023/10/01 03:19:36;;;;;;;16.65;6.90;;;;;;;;;;5048642;28;20041;-75
2023/10/01 03:22:22;;;;;;;15.23;6.45;;;;;;;;;;5058314;28;20052;-76
2023/10/01 03:24:48;;;;;;;15.80;6.70;;;;;;;;;;5064156;28;20480;-75
2023/10/01 03:27:27;;;;;;;14.63;6.05;;;;;;;;;;5047660;28;20476;-75
2023/10/01 03:30:09;;;;;;;13.40;6.00;;;;;;;;;;5061810;28;20368;-75
2023/10/01 03:32:40;;;;;;;16.40;6.50;;;;;;;;;;5065931;28;20446;-76
2023/10/01 03:35:08;;;;;;;17.00;6.70;;;;;;;;;;5045545;28;20102;-76
2023/10/01 03:37:40;;;;;;;16.42;6.35;;;;;;;;;;5060773;28;20565;-76
2023/10/01 03:40:14;;;;;;;11.82;6.15;;;;;;;;;;5055452;28;20072;-76
2023/10/01 03:42:43;;;;;;;17.20;6.20;;;;;;;;;;5064354;28;20052;-75
2023/10/01 03:47:50;;;;;;;17.10;6.90;;;;;;;;;;5063727;28;20389;-75
2023/10/01 03:50:20;;;;;;;19.42;6.93;;;;;;;;;;5051501;28;20048;-75
2023/10/01 03:52:51;;;;;;;16.27;6.75;;;;;;;;;;5046108;28;20131;-76
2023/10/01 03:55:28;;;;;;;17.08;7.40;;;;;;;;;;5054338;28;20123;-75
2023/10/01 03:58:05;;;;;;;18.65;7.18;;;;;;;;;;5051038;28;20044;-75
2023/10/01 04:00:53;;;;;;;17.67;7.20;;;;;;;;;;5070473;28;20094;-75
2023/10/01 04:03:21;;;;;;;18.00;8.50;;;;;;;;;;5065250;28;20076;-75
2023/10/01 04:05:47;;;;;;;17.23;8.05;;;;;;;;;;5046597;28;20049;-75
2023/10/01 04:08:14;;;;;;;14.98;7.90;;;;;;;;;;5049798;28;20071;-75
2023/10/01 04:10:41;;;;;;;19.17;8.40;;;;;;;;;;5054734;28;20055;-75
2023/10/01 04:15:49;;;;;;;18.40;8.68;;;;;;;;;;5058056;28;20044;-75
2023/10/01 04:20:47;;;;;;;21.88;9.18;;;;;;;;;;5065068;28;20403;-75
2023/10/01 04:23:29;;;;;;;18.05;8.98;;;;;;;;;;5063224;28;20542;-75
2023/10/01 04:26:04;;;;;;;17.45;7.75;;;;;;;;;;5059697;28;20055;-75
2023/10/01 04:28:31;;;;;;;20.33;8.65;;;;;;;;;;5048641;28;20149;-76
2023/10/01 04:30:57;;;;;;;19.98;8.35;;;;;;;;;;5060478;28;20047;-75
2023/10/01 04:33:23;;;;;;;20.33;8.38;;;;;;;;;;5064272;28;20051;-75
2023/10/01 04:35:55;;;;;;;23.88;9.13;;;;;;;;;;5063884;28;20049;-76
2023/10/01 04:38:32;;;;;;;19.42;8.52;;;;;;;;;;5041535;28;20500;-76
2023/10/01 04:40:58;;;;;;;24.00;9.60;;;;;;;;;;5073955;28;20054;-76
2023/10/01 04:43:26;;;;;;;22.23;9.00;;;;;;;;;;5054498;28;20040;-75
2023/10/01 04:45:52;;;;;;;24.15;9.02;;;;;;;;;;5049969;28;20044;-76
2023/10/01 04:48:22;;;;;;;19.17;8.73;;;;;;;;;;5056292;28;20127;-76
2023/10/01 04:50:55;;;;;;;22.83;8.93;;;;;;;;;;5044663;28;20056;-75
2023/10/01 04:53:22;;;;;;;22.35;8.88;;;;;;;;;;5054648;28;20041;-76
2023/10/01 04:56:00;;;;;;;22.67;9.27;;;;;;;;;;5064288;28;20036;-76
2023/10/01 04:58:26;;;;;;;23.70;8.82;;;;;;;;;;5071806;28;20537;-75
2023/10/01 05:00:54;;;;;;;22.13;9.38;;;;;;;;;;5050850;28;20737;-76
2023/10/01 05:03:36;;;;;;;23.90;9.90;;;;;;;;;;5037144;28;20040;-75
2023/10/01 05:06:02;;;;;;;19.60;9.07;;;;;;;;;;5058849;28;20083;-76
2023/10/01 05:08:38;;;;;;;19.33;9.02;;;;;;;;;;5047950;28;20055;-75
2023/10/01 05:11:04;;;;;;;21.25;9.82;;;;;;;;;;5068845;28;20041;-76
2023/10/01 05:13:31;;;;;;;19.50;9.05;;;;;;;;;;5054075;28;20044;-76
2023/10/01 05:15:57;;;;;;;20.73;9.52;;;;;;;;;;5053812;28;20624;-76
2023/10/01 05:18:26;;;;;;;23.85;9.38;;;;;;;;;;5050811;28;20478;-75
2023/10/01 05:20:58;;;;;;;27.88;9.88;;;;;;;;;;5059989;28;20453;-76
2023/10/01 05:23:24;;;;;;;22.52;9.90;;;;;;;;;;5055490;28;20045;-76
2023/10/01 05:25:50;;;;;;;27.45;10.38;;;;;;;;;;5046619;28;20052;-76
2023/10/01 05:28:23;;;;;;;25.90;11.07;;;;;;;;;;5069747;28;20052;-76
2023/10/01 05:30:57;;;;;;;23.77;11.38;;;;;;;;;;5050323;28;20090;-76
2023/10/01 05:33:24;;;;;;;23.60;11.88;;;;;;;;;;5047394;28;20465;-76
2023/10/01 05:35:54;;;;;;;30.05;13.05;;;;;;;;;;5049201;28;20049;-76
2023/10/01 05:38:21;;;;;;;29.90;13.48;;;;;;;;;;5045390;28;20042;-75
2023/10/01 05:40:52;;;;;;;33.08;15.00;;;;;;;;;;5070056;28;20044;-76
2023/10/01 05:43:18;;;;;;;38.00;15.50;;;;;;;;;;5070166;28;20049;-76
2023/10/01 05:45:52;;;;;;;35.28;15.40;;;;;;;;;;5050764;28;20095;-76
2023/10/01 05:48:23;;;;;;;35.25;15.75;;;;;;;;;;5055218;28;20057;-76
2023/10/01 05:50:49;;;;;;;25.63;15.25;;;;;;;;;;5047457;28;20049;-75
2023/10/01 05:53:18;;;;;;;35.25;16.58;;;;;;;;;;5046686;28;20075;-75
2023/10/01 05:55:45;;;;;;;31.90;17.05;;;;;;;;;;5048613;28;20044;-75
2023/10/01 05:58:14;;;;;;;28.60;16.77;;;;;;;;;;5057904;28;20052;-76
2023/10/01 06:00:45;;;;;;;34.80;16.23;;;;;;;;;;5038822;28;20045;-76
2023/10/01 06:03:18;;;;;;;36.60;16.00;;;;;;;;;;5044729;28;20125;-75
2023/10/01 06:05:50;;;;;;;28.83;15.93;;;;;;;;;;5065248;28;20045;-75
2023/10/01 06:08:17;;;;;;;28.55;15.27;;;;;;;;;;5043871;28;20054;-75
2023/10/01 06:11:05;;;;;;;32.15;15.00;;;;;;;;;;5068867;28;20079;-75
2023/10/01 06:13:35;;;;;;;24.23;13.27;;;;;;;;;;5062271;28;20146;-76
2023/10/01 06:16:11;;;;;;;32.60;14.32;;;;;;;;;;5059521;28;20044;-76
2023/10/01 06:18:41;;;;;;;27.10;14.50;;;;;;;;;;5061057;28;20388;-75
2023/10/01 06:21:09;;;;;;;23.58;13.38;;;;;;;;;;5041132;28;20049;-75
2023/10/01 06:23:49;;;;;;;32.63;14.38;;;;;;;;;;5056199;28;20044;-75
2023/10/01 06:26:15;;;;;;;28.35;13.73;;;;;;;;;;5066426;28;20127;-75
2023/10/01 06:28:41;;;;;;;32.30;14.65;;;;;;;;;;5035785;28;20051;-76
2023/10/01 06:31:08;;;;;;;31.08;14.48;;;;;;;;;;5044742;28;20462;-76
2023/10/01 06:33:36;;;;;;;24.17;12.63;;;;;;;;;;5045776;28;20040;-76
2023/10/01 06:36:21;;;;;;;31.92;13.40;;;;;;;;;;5035732;28;20094;-76
2023/10/01 06:38:47;;;;;;;31.83;12.80;;;;;;;;;;5038391;28;20088;-76
2023/10/01 06:41:19;;;;;;;24.67;11.27;;;;;;;;;;5044286;28;20052;-76
2023/10/01 06:43:49;;;;;;;25.42;11.18;;;;;;;;;;5052709;28;20048;-76
2023/10/01 06:46:16;;;;;;;24.63;10.52;;;;;;;;;;5052304;28;20093;-76
2023/10/01 06:48:43;;;;;;;25.45;10.10;;;;;;;;;;5050921;28;20068;-76
2023/10/01 06:51:09;;;;;;;19.50;9.65;;;;;;;;;;5049706;28;20097;-75
2023/10/01 06:53:45;;;;;;;23.42;10.48;;;;;;;;;;5032716;28;20104;-76
2023/10/01 06:56:14;;;;;;;18.02;9.38;;;;;;;;;;5051349;28;20455;-75
2023/10/01 06:58:41;;;;;;;21.75;10.25;;;;;;;;;;5047646;28;20079;-76
2023/10/01 07:01:34;;;;;;;20.33;9.45;;;;;;;;;;5061890;28;20036;-76
2023/10/01 07:03:54;;;;;;;26.38;10.38;;;;;;;;;;5059767;28;20526;-75
2023/10/01 07:06:21;;;;;;;25.52;10.30;;;;;;;;;;5049573;28;20051;-75
2023/10/01 07:08:48;;;;;;;27.00;10.82;;;;;;;;;;5056769;28;20043;-76
2023/10/01 07:11:18;;;;;;;24.98;10.43;;;;;;;;;;5062911;28;20056;-76
2023/10/01 07:13:44;;;;;;;25.33;10.18;;;;;;;;;;5065498;28;20053;-75
2023/10/01 07:16:10;;;;;;;21.55;9.88;;;;;;;;;;5064473;28;20075;-75
2023/10/01 07:18:37;;;;;;;21.42;10.27;;;;;;;;;;5043760;28;20488;-75
2023/10/01 07:21:11;;;;;;;25.75;10.15;;;;;;;;;;5061455;28;20462;-75
2023/10/01 07:23:38;;;;;;;22.92;9.98;;;;;;;;;;5042478;28;20048;-76
2023/10/01 07:26:12;;;;;;;22.48;10.10;;;;;;;;;;5050053;28;20114;-75
2023/10/01 07:28:41;;;;;;;20.95;9.52;;;;;;;;;;5045515;28;20396;-76
2023/10/01 07:31:07;;;;;;;20.85;9.40;;;;;;;;;;5040280;28;20091;-76
2023/10/01 07:33:35;;;;;;;19.85;10.27;;;;;;;;;;5051556;28;20048;-76
2023/10/01 07:36:11;;;;;;;25.48;10.68;;;;;;;;;;5042361;28;20112;-76
2023/10/01 07:38:49;;;;;;;18.95;8.88;;;;;;;;;;5043385;28;20048;-75
2023/10/01 07:41:16;;;;;;;20.17;9.45;;;;;;;;;;5057580;28;20098;-76
2023/10/01 07:43:45;;;;;;;23.80;10.20;;;;;;;;;;5041070;28;20480;-75
2023/10/01 07:46:12;;;;;;;21.58;10.02;;;;;;;;;;5038404;28;20110;-75
2023/10/01 07:48:39;;;;;;;21.23;9.57;;;;;;;;;;5038509;28;20040;-76
2023/10/01 07:51:22;;;;;;;18.75;9.18;;;;;;;;;;5057133;28;20497;-76
2023/10/01 07:53:49;;;;;;;21.40;10.35;;;;;;;;;;5053323;28;20480;-76
2023/10/01 07:56:16;;;;;;;20.50;10.38;;;;;;;;;;5037134;28;20144;-75
2023/10/01 07:58:45;;;;;;;22.00;9.70;;;;;;;;;;5046744;28;20086;-76
2023/10/01 08:04:05;;;;;;;23.58;9.80;;;;;;;;;;5053326;28;20062;-75
2023/10/01 08:06:41;;;;;;;24.02;10.18;;;;;;;;;;5060360;28;20055;-76
2023/10/01 08:09:08;;;;;;;23.80;10.02;;;;;;;;;;5040180;28;20477;-78
2023/10/01 08:14:20;;;;;;;22.85;9.68;;;;;;;;;;5065170;28;20056;-75
2023/10/01 08:16:50;;;;;;;20.58;10.43;;;;;;;;;;5043181;28;20120;-75
2023/10/01 08:19:20;;;;;;;21.17;9.52;;;;;;;;;;5041525;28;20041;-76
2023/10/01 08:22:13;;;;;;;21.63;10.63;;;;;;;;;;5059976;28;20126;-75
2023/10/01 08:24:45;;;;;;;24.52;10.60;;;;;;;;;;5035939;28;20056;-75
2023/10/01 08:27:12;;;;;;;22.30;9.85;;;;;;;;;;5055915;28;20053;-75
2023/10/01 08:30:00;;;;;;;22.00;10.05;;;;;;;;;;5059520;28;20084;-75
2023/10/01 08:32:49;;;;;;;26.07;10.97;;;;;;;;;;5052436;28;20154;-75
2023/10/01 08:35:22;;;;;;;20.92;9.98;;;;;;;;;;5046670;28;20041;-77
2023/10/01 08:37:49;;;;;;;22.10;9.68;;;;;;;;;;5038036;28;20041;-75
2023/10/01 08:40:17;;;;;;;24.13;9.95;;;;;;;;;;5055955;28;20404;-74
2023/10/01 08:42:44;;;;;;;25.52;9.85;;;;;;;;;;5035981;28;20580;-75
2023/10/01 08:45:17;;;;;;;23.10;10.95;;;;;;;;;;5044261;28;20044;-74
2023/10/01 08:47:50;;;;;;;25.75;10.15;;;;;;;;;;5043983;28;20052;-75
2023/10/01 08:50:36;;;;;;;21.35;8.98;;;;;;;;;;5054205;28;20041;-74
2023/10/01 08:53:10;;;;;;;19.02;9.20;;;;;;;;;;5038910;28;20060;-75
2023/10/01 08:56:04;;;;;;;22.20;9.82;;;;;;;;;;5035107;28;20053;-75
2023/10/01 08:58:27;;;;;;;26.23;9.88;;;;;;;;;;5039163;28;20094;-75
2023/10/01 09:01:11;;;;;;;25.10;9.50;;;;;;;;;;5039738;28;20036;-75
2023/10/01 09:03:39;;;;;;;22.00;9.98;;;;;;;;;;5046842;28;20049;-75
2023/10/01 09:06:24;;;;;;;25.42;9.27;;;;;;;;;;5035851;28;20037;-75
2023/10/01 09:08:54;;;;;;;21.73;9.60;;;;;;;;;;5049516;28;20082;-75
2023/10/01 09:11:23;;;;;;;24.00;9.20;;;;;;;;;;5047419;28;20056;-74
2023/10/01 09:13:58;;;;;;;25.63;9.93;;;;;;;;;;5047802;28;20400;-75
2023/10/01 09:16:33;;;;;;;25.42;8.57;;;;;;;;;;5048294;28;20068;-75
2023/10/01 09:19:42;;;;;;;24.73;9.32;;;;;;;;;;5041340;28;20052;-75
2023/10/01 09:21:51;;;;;;;26.52;9.20;;;;;;;;;;5043097;28;20079;-75
2023/10/01 09:24:39;;;;;;;24.88;9.32;;;;;;;;;;5042303;28;20511;-74
2023/10/01 09:27:09;;;;;;;19.15;8.55;;;;;;;;;;5054258;28;20484;-75
2023/10/01 09:29:48;;;;;;;27.13;9.52;;;;;;;;;;5062848;28;20039;-75
2023/10/01 09:32:51;;;;;;;24.70;10.77;;;;;;;;;;5064929;28;20123;-75
2023/10/01 09:35:49;;;;;;;19.85;9.07;;;;;;;;;;5052183;28;20090;-75
2023/10/01 09:38:18;;;;;;;25.90;9.18;;;;;;;;;;5051356;28;20557;-75
2023/10/01 09:40:47;;;;;;;24.05;9.40;;;;;;;;;;5045017;28;20052;-75
2023/10/01 09:43:19;;;;;;;19.75;7.95;;;;;;;;;;5062349;28;20048;-75
2023/10/01 09:45:51;;;;;;;23.42;8.57;;;;;;;;;;5050752;28;20052;-75
2023/10/01 09:48:33;;;;;;;22.55;9.27;;;;;;;;;;5065874;28;20076;-75
2023/10/01 09:51:15;;;;;;;20.55;8.50;;;;;;;;;;5053294;28;20075;-75
2023/10/01 09:53:54;;;;;;;24.60;9.93;;;;;;;;;;5061090;28;20079;-74
2023/10/01 09:56:26;;;;;;;24.92;9.25;;;;;;;;;;5068290;28;20053;-74
2023/10/01 09:59:03;;;;;;;19.15;8.85;;;;;;;;;;5038822;28;20051;-75
2023/10/01 10:01:33;;;;;;;23.55;8.57;;;;;;;;;;5053059;28;20051;-75
2023/10/01 10:04:20;;;;;;;19.77;8.63;;;;;;;;;;5057917;28;20514;-75
2023/10/01 10:06:59;;;;;;;21.10;8.38;;;;;;;;;;5027596;28;20044;-75
2023/10/01 10:09:31;;;;;;;20.83;9.32;;;;;;;;;;5059686;28;20361;-74
2023/10/01 10:12:07;;;;;;;21.27;8.98;;;;;;;;;;5054760;28;20118;-75
2023/10/01 10:14:36;;;;;;;20.98;8.25;;;;;;;;;;5035997;28;20048;-75
2023/10/01 10:20:00;;;;;;;15.25;8.32;;;;;;;;;;5038821;28;20044;-75
2023/10/01 10:22:32;;;;;;;16.75;8.35;;;;;;;;;;5058015;28;20057;-75
2023/10/01 10:25:25;;;;;;;21.63;9.38;;;;;;;;;;5058305;28;20075;-75
2023/10/01 10:27:52;;;;;;;20.02;8.70;;;;;;;;;;5038724;28;20044;-75
2023/10/01 10:30:21;;;;;;;18.17;9.23;;;;;;;;;;5040982;28;20488;-75
2023/10/01 10:33:10;;;;;;;18.45;8.45;;;;;;;;;;5053344;28;20164;-74
2023/10/01 10:35:46;;;;;;;20.05;9.13;;;;;;;;;;5040661;28;20060;-75
2023/10/01 10:38:32;;;;;;;20.48;9.27;;;;;;;;;;5054161;28;20048;-74
2023/10/01 10:41:07;;;;;;;22.23;9.55;;;;;;;;;;5054545;28;20054;-74
2023/10/01 10:43:36;;;;;;;22.38;9.40;;;;;;;;;;5043218;28;20045;-73
2023/10/01 10:46:04;;;;;;;19.50;9.05;;;;;;;;;;5055607;28;20045;-72
2023/10/01 10:48:59;;;;;;;23.33;9.00;;;;;;;;;;5037917;28;20128;-71
2023/10/01 10:51:45;;;;;;;20.73;9.30;;;;;;;;;;5023233;28;20063;-71
2023/10/01 10:54:16;;;;;;;21.75;9.32;;;;;;;;;;5044036;28;20044;-71
2023/10/01 10:56:44;;;;;;;20.08;9.60;;;;;;;;;;5043603;28;20052;-71
2023/10/01 10:59:13;;;;;;;19.95;9.48;;;;;;;;;;5039386;28;20053;-71
2023/10/01 11:01:46;;;;;;;20.75;9.00;;;;;;;;;;5059834;28;20071;-71
2023/10/01 11:04:13;;;;;;;18.13;9.88;;;;;;;;;;5060240;28;20048;-72
2023/10/01 11:06:40;;;;;;;18.25;9.35;;;;;;;;;;5040875;28;20487;-71
2023/10/01 11:09:22;;;;;;;23.58;9.20;;;;;;;;;;5055814;28;20059;-71
2023/10/01 11:11:49;;;;;;;19.30;9.73;;;;;;;;;;5038068;28;20767;-71
2023/10/01 11:14:19;;;;;;;23.75;10.65;;;;;;;;;;5054715;28;20044;-71
2023/10/01 11:16:49;;;;;;;24.17;10.18;;;;;;;;;;5053234;28;20049;-71
2023/10/01 11:19:19;;;;;;;18.85;9.70;;;;;;;;;;5056242;28;20086;-71
2023/10/01 11:21:55;;;;;;;24.40;10.23;;;;;;;;;;5056280;28;20073;-71
2023/10/01 11:24:42;;;;;;;22.98;11.15;;;;;;;;;;5041052;28;20072;-71
2023/10/01 11:27:14;;;;;;;23.15;9.90;;;;;;;;;;5037104;28;20048;-71
2023/10/01 11:29:44;;;;;;;24.25;11.27;;;;;;;;;;5053380;28;20059;-71
2023/10/01 11:32:16;;;;;;;21.85;10.23;;;;;;;;;;5051077;28;20044;-71
2023/10/01 11:34:46;;;;;;;21.58;10.45;;;;;;;;;;5055683;28;20478;-71
2023/10/01 11:37:19;;;;;;;23.00;10.40;;;;;;;;;;5042592;28;20051;-71
2023/10/01 11:39:52;;;;;;;24.45;10.27;;;;;;;;;;5055537;28;20571;-71
2023/10/01 11:42:21;;;;;;;;;;;;;;;;;;5039270;28;20066;-71
2023/10/01 11:44:52;;;;;;;24.55;10.10;;;;;;;;;;5053046;28;19925;-72
2023/10/01 11:47:31;;;;;;;22.15;10.20;;;;;;;;;;5034522;28;20052;-71
2023/10/01 11:50:07;;;;;;;21.23;9.93;;;;;;;;;;5034198;28;20048;-72
2023/10/01 11:52:34;;;;;;;23.42;10.68;;;;;;;;;;5041501;28;20040;-71
2023/10/01 11:55:01;;;;;;;23.88;10.13;;;;;;;;;;5052520;28;20440;-71
2023/10/01 11:57:31;;;;;;;22.13;10.63;;;;;;;;;;5037457;28;20052;-71
2023/10/01 11:59:58;;;;;;;18.58;9.90;;;;;;;;;;5035153;28;20075;-71
2023/10/01 12:02:25;;;;;;;21.23;10.52;;;;;;;;;;5034863;28;20049;-71
2023/10/01 12:04:58;;;;;;;25.13;11.20;;;;;;;;;;5054133;28;20049;-71
2023/10/01 12:07:32;;;;;;;23.40;10.88;;;;;;;;;;5059564;28;20431;-72
2023/10/01 12:09:59;;;;;;;23.05;10.80;;;;;;;;;;5044220;28;20048;-71
2023/10/01 12:12:27;;;;;;;23.98;10.93;;;;;;;;;;5058920;28;20045;-71
2023/10/01 12:14:54;;;;;;;23.45;10.75;;;;;;;;;;5058252;28;20127;-72
2023/10/01 12:17:24;;;;;;;17.48;9.95;;;;;;;;;;5037271;28;20400;-71
2023/10/01 12:19:54;;;;;;;20.55;10.63;;;;;;;;;;5056447;28;20052;-71
2023/10/01 12:22:26;;;;;;;21.98;10.38;;;;;;;;;;5062632;28;20404;-71
2023/10/01 12:24:58;;;;;;;27.08;12.30;;;;;;;;;;5039072;28;20056;-72
2023/10/01 12:27:37;;;;;;;19.85;10.48;;;;;;;;;;5048832;28;20559;-72
2023/10/01 12:30:20;;;;;;;23.90;10.80;;;;;;;;;;5040452;28;20400;-72
2023/10/01 12:32:48;;;;;;;19.00;10.27;;;;;;;;;;5056521;28;20041;-71
2023/10/01 12:35:35;;;;;;;22.63;11.50;;;;;;;;;;5040875;28;20094;-72
2023/10/01 12:40:49;;;;;;;21.45;11.10;;;;;;;;;;5041285;28;20082;-71
2023/10/01 12:46:00;;;;;;;19.95;10.10;;;;;;;;;;5067403;28;20052;-72
2023/10/01 12:48:28;;;;;;;22.48;10.18;;;;;;;;;;5068634;28;20720;-72
2023/10/01 12:51:00;;;;;;;24.77;11.27;;;;;;;;;;5074168;28;20145;-72
2023/10/01 12:53:27;;;;;;;26.35;11.30;;;;;;;;;;5051470;28;20048;-72
2023/10/01 12:55:53;;;;;;;23.55;11.43;;;;;;;;;;5039680;28;20056;-72
2023/10/01 12:58:29;;;;;;;24.77;12.27;;;;;;;;;;5048685;28;20045;-71
2023/10/01 13:00:57;;;;;;;24.77;11.32;;;;;;;;;;5053580;28;20051;-71
2023/10/01 13:03:23;;;;;;;20.85;10.70;;;;;;;;;;5057686;28;20088;-71
2023/10/01 13:05:52;;;;;;;19.48;11.40;;;;;;;;;;5048431;28;20403;-71
2023/10/01 13:08:30;;;;;;;22.73;11.50;;;;;;;;;;5045918;28;20071;-71
2023/10/01 13:10:56;;;;;;;21.40;11.07;;;;;;;;;;5067844;28;20050;-72
2023/10/01 13:13:29;;;;;;;26.40;12.02;;;;;;;;;;5055641;28;20048;-71
2023/10/01 13:15:59;;;;;;;25.08;11.95;;;;;;;;;;5068700;28;20115;-71
2023/10/01 13:18:28;;;;;;;22.58;11.23;;;;;;;;;;5045678;28;20037;-71
2023/10/01 13:21:09;;;;;;;22.13;11.45;;;;;;;;;;5048604;28;20046;-71
2023/10/01 13:23:42;;;;;;;22.60;10.93;;;;;;;;;;5045522;28;20127;-72
2023/10/01 13:26:15;;;;;;;27.55;12.13;;;;;;;;;;5044908;28;20036;-71
2023/10/01 13:28:51;;;;;;;24.40;11.27;;;;;;;;;;5054362;28;20052;-71
2023/10/01 13:39:44;;;;;;;31.27;12.90;;;;;;;;;;5058527;28;20504;-71
2023/10/01 14:09:54;;;;;;;25.52;11.57;;;;;;;;;;5055473;28;20045;-73
2023/10/01 14:15:20;;;;;;;26.88;11.70;;;;;;;;;;5052805;28;20086;-73
2023/10/01 14:17:55;;;;;;;23.60;11.90;;;;;;;;;;5045521;28;20086;-75
2023/10/01 14:20:46;;;;;;;25.70;12.23;;;;;;;;;;5050646;28;20040;-76
2023/10/01 14:23:39;;;;;;;22.98;11.30;;;;;;;;;;5048120;28;20097;-72
2023/10/01 14:26:20;;;;;;;27.45;12.27;;;;;;;;;;5065654;28;20043;-72
2023/10/01 14:28:46;;;;;;;27.88;13.10;;;;;;;;;;5046115;28;20079;-71
2023/10/01 14:31:19;;;;;;;27.17;11.90;;;;;;;;;;5053082;28;20048;-74
2023/10/01 14:33:46;;;;;;;25.75;12.80;;;;;;;;;;5042899;28;20124;-72
2023/10/01 14:36:14;;;;;;;30.08;13.48;;;;;;;;;;5050418;28;20041;-69
2023/10/01 14:38:41;;;;;;;26.63;12.35;;;;;;;;;;5068711;28;20392;-71
2023/10/01 14:41:11;;;;;;;25.52;12.40;;;;;;;;;;5053647;28;20048;-74
2023/10/01 14:43:41;;;;;;;26.20;12.85;;;;;;;;;;5062505;28;20093;-74
2023/10/01 14:46:08;;;;;;;26.27;12.15;;;;;;;;;;5062972;28;20056;-71
2023/10/01 14:48:38;;;;;;;24.50;11.90;;;;;;;;;;5042553;28;20047;-71
2023/10/01 14:51:05;;;;;;;25.42;12.38;;;;;;;;;;5045957;28;20048;-71
2023/10/01 14:53:36;;;;;;;29.65;13.07;;;;;;;;;;5056846;28;20099;-72
2023/10/01 14:56:05;;;;;;;25.15;13.30;;;;;;;;;;5057342;28;20076;-74
2023/10/01 14:58:34;;;;;;;28.05;13.05;;;;;;;;;;5049832;28;20434;-71
2023/10/01 15:01:01;;;;;;;22.38;12.52;;;;;;;;;;5069758;28;20418;-72
2023/10/01 15:03:34;;;;;;;27.35;12.25;;;;;;;;;;5056420;28;20494;-71
2023/10/01 15:06:01;;;;;;;;;;;;;;;;;;5045730;28;20047;-74
2023/10/01 15:08:29;;;;;;;20.70;11.82;;;;;;;;;;5045729;28;19928;-72
2023/10/01 15:10:57;;;;;;;26.45;12.27;;;;;;;;;;5051003;28;20143;-72
2023/10/01 15:13:45;;;;;;;26.50;12.23;;;;;;;;;;5062150;28;20504;-73
2023/10/01 15:16:14;;;;;;;25.15;12.07;;;;;;;;;;5035569;28;20045;-74
2023/10/01 15:18:40;;;;;;;26.48;13.35;;;;;;;;;;5064412;28;20067;-75
2023/10/01 15:21:17;;;;;;;27.98;12.52;;;;;;;;;;5063081;28;20120;-75
2023/10/01 15:23:46;;;;;;;24.30;12.52;;;;;;;;;;5065385;28;20052;-76
2023/10/01 15:26:13;;;;;;;26.20;12.38;;;;;;;;;;5052243;28;20044;-70
2023/10/01 15:28:50;;;;;;;27.02;12.90;;;;;;;;;;5069051;28;20044;-72
2023/10/01 15:31:16;;;;;;;26.45;13.38;;;;;;;;;;5061938;28;20474;-73
2023/10/01 15:34:00;;;;;;;28.00;13.25;;;;;;;;;;5056295;28;20037;-74
2023/10/01 15:36:40;;;;;;;21.27;12.43;;;;;;;;;;5063531;28;20411;-73
2023/10/01 15:39:14;;;;;;;28.92;13.43;;;;;;;;;;5051006;28;20102;-72
2023/10/01 15:41:41;;;;;;;24.90;13.20;;;;;;;;;;5055344;28;20122;-71
2023/10/01 15:44:08;;;;;;;27.30;13.55;;;;;;;;;;5045525;28;20063;-72
2023/10/01 15:46:40;;;;;;;28.33;13.88;;;;;;;;;;5064318;28;20127;-72
2023/10/01 15:49:18;;;;;;;27.88;13.02;;;;;;;;;;5049838;28;20477;-72
2023/10/01 15:51:46;;;;;;;27.90;14.38;;;;;;;;;;5056740;28;20041;-71
2023/10/01 15:54:22;;;;;;;30.60;14.20;;;;;;;;;;5050620;28;20041;-71
2023/10/01 15:56:48;;;;;;;26.75;13.90;;;;;;;;;;5066943;28;20047;-72
2023/10/01 15:59:19;;;;;;;29.77;14.82;;;;;;;;;;5062959;28;20132;-71